Latest Coastal Weather Observations for Cocos Island

IDW60701

Issued at 10:23 am WST Saturday 5 December 2020 (issued every 10 minutes, with the page automatically refreshed every 10 minutes)

About coastal observations | Map of coastal stations | Coastal observations for WA | Marine services | Other Formats
Station Details ID: 200284 Name: COCOS ISLAND AIRPORT Lat: -12.19 Lon: 96.83 Height: 3.0 m
Data from the previous 72 hours. | See also: Recent months at Cocos Island
Date/Time
WST
Wind Sea
Height
m
Swell Vis
km
Cloud Weather Temp
°C
Press
MSL
hPa
Rain since
9am
mm
Dir  Spd
kts
Gust
kts
Height
m
Period
s
Dir
05/10:00am SE 15 20 - - - - 10 Cloudy - 27.5 1012.1 0.0
05/09:30am SE 18 24 - - - - 10 Partly cloudy - 27.3 1011.8 0.0
05/09:00am SE 19 25 - - - - 10 Partly cloudy - 27.0 1011.3 0.0
05/08:30am SE 18 24 - - - - 10 Partly cloudy - 26.9 1010.8 0.0
05/08:00am SE 18 23 - - - - 10 Partly cloudy - 26.6 1010.8 0.0
05/07:30am SE 16 20 - - - - 10 Partly cloudy - 26.4 1010.7 0.0
05/07:00am SE 16 21 - - - - 10 Partly cloudy - 26.3 1010.4 0.0
05/06:30am ESE 15 19 - - - - 10 Partly cloudy - 26.3 1010.3 0.0
05/06:00am SE 17 20 - - - - 10 Partly cloudy - 26.3 1010.1 0.0
05/05:30am SE 16 20 - - - - 10 Partly cloudy - 26.4 1010.2 0.0
05/05:00am SE 15 19 - - - - 10 Partly cloudy - 26.3 1010.3 0.0
05/04:30am SE 14 19 - - - - 10 Partly cloudy - 26.4 1010.5 0.0
05/04:00am ESE 15 19 - - - - 10 Partly cloudy - 26.4 1010.5 0.0
05/03:30am SE 15 18 - - - - 10 Partly cloudy - 26.5 1010.7 0.0
05/03:00am SE 15 19 - - - - 10 Partly cloudy - 26.6 1011.2 0.0
05/02:30am SE 15 18 - - - - 10 Partly cloudy - 26.6 1011.5 0.0
05/02:00am ESE 13 18 - - - - 10 Cloudy - 26.8 1012.0 0.0
05/01:30am ESE 12 17 - - - - 10 Partly cloudy - 26.8 1012.5 0.0
05/01:00am SE 13 18 - - - - 10 Partly cloudy - 26.9 1012.8 0.0
05/12:30am SE 13 17 - - - - 10 Partly cloudy - 27.0 1013.0 0.0
05/12:00am ESE 12 17 - - - - 10 Partly cloudy - 26.9 1012.9 0.0
 
Date/Time
WST
Wind Sea
Height
m
Swell Vis
km
Cloud Weather Temp
°C
Press
MSL
hPa
Rain since
9am
mm
Dir  Spd
kts
Gust
kts
Height
m
Period
s
Dir
04/11:30pm SE 13 18 - - - - 10 Partly cloudy - 27.0 1012.9 0.0
04/11:00pm ESE 14 19 - - - - 10 Mostly clear - 27.1 1012.8 0.0
04/10:30pm ESE 13 18 - - - - 10 - - 27.2 1012.7 0.0
04/10:00pm SE 14 18 - - - - 10 - - 27.2 1012.3 0.0
04/09:30pm SE 14 18 - - - - 10 - - 27.2 1012.1 0.0
04/09:00pm ESE 12 17 - - - - 10 Partly cloudy - 27.2 1011.9 0.0
04/08:30pm ESE 12 17 - - - - 10 Partly cloudy - 27.2 1011.5 0.0
04/08:00pm ESE 10 15 - - - - 10 Cloudy - 27.3 1011.1 0.0
04/07:30pm ESE 9 14 - - - - 10 Partly cloudy - 27.4 1010.7 0.0
04/07:00pm ESE 11 15 - - - - 10 Partly cloudy - 27.8 1010.4 0.0
04/06:30pm SE 12 15 - - - - 10 Partly cloudy - 28.0 1010.0 0.0
04/06:00pm SE 14 16 - - - - 10 Partly cloudy - 28.3 1009.7 0.0
04/05:30pm ESE 12 17 - - - - 10 Partly cloudy - 28.6 1009.6 0.0
04/05:00pm SE 11 16 - - - - 10 Mostly clear - 28.8 1009.7 0.0
04/04:30pm ESE 12 16 - - - - 10 Mostly clear - 28.9 1009.6 0.0
04/04:00pm SE 13 17 - - - - 10 Partly cloudy - 28.5 1010.0 0.0
04/03:30pm SE 12 16 - - - - 10 Partly cloudy - 28.6 1010.2 0.0
04/03:00pm ESE 12 17 - - - - 10 Mostly clear - 29.0 1010.5 0.0
04/02:30pm ESE 13 17 - - - - 10 Mostly clear - 28.8 1010.8 0.0
04/02:00pm ESE 14 17 - - - - 10 Mostly clear - 29.0 1010.9 0.0
04/01:30pm ESE 11 16 - - - - 10 Partly cloudy - 29.1 1010.9 0.0
04/01:00pm ESE 11 16 - - - - 10 Partly cloudy - 29.0 1011.0 0.0
04/12:30pm SE 12 17 - - - - 10 Partly cloudy - 28.1 1011.0 0.0
04/12:00pm ESE 12 15 - - - - 10 Mostly clear - 28.8 1011.2 0.0
04/11:30am SE 13 17 - - - - 10 Mostly clear - 28.7 1011.3 0.0
04/11:00am SE 12 15 - - - - 10 Partly cloudy - 28.4 1011.5 0.0
04/10:30am SE 13 17 - - - - 10 Partly cloudy - 27.9 1011.4 0.0
04/10:00am SE 13 16 - - - - 10 Partly cloudy - 27.7 1011.4 0.0
04/09:30am SE 14 18 - - - - 10 Partly cloudy - 27.5 1011.2 0.0
04/09:00am SE 14 18 - - - - 10 - - 27.4 1011.1 0.0
04/08:30am SE 14 17 - - - - 10 Partly cloudy - 27.0 1010.8 0.0
04/08:00am SE 13 15 - - - - 10 Mostly clear - 26.6 1010.8 0.0
04/07:30am ESE 12 16 - - - - 10 Partly cloudy - 26.4 1010.4 0.0
04/07:00am ESE 12 17 - - - - 10 Partly cloudy - 26.3 1010.0 0.0
04/06:30am SE 11 15 - - - - 10 Partly cloudy - 26.3 1010.0 0.0
04/06:00am SE 12 16 - - - - 10 Partly cloudy - 26.3 1009.9 0.0
04/05:30am SE 13 15 - - - - 10 Partly cloudy - 26.3 1009.7 0.0
04/05:00am SE 13 16 - - - - 10 Mostly clear - 26.2 1009.8 0.0
04/04:30am SE 13 15 - - - - 10 Partly cloudy - 26.3 1009.8 0.0
04/04:00am SE 13 16 - - - - 10 Partly cloudy - 26.2 1010.0 0.0
04/03:30am SE 13 16 - - - - 10 Partly cloudy - 26.3 1010.3 0.0
04/03:00am SE 14 17 - - - - 10 Partly cloudy - 26.4 1010.6 0.0
04/02:30am SE 12 16 - - - - 10 Partly cloudy - 26.4 1010.9 0.0
04/02:00am SE 11 14 - - - - 10 - - 26.4 1011.2 0.0
04/01:30am SE 14 18 - - - - 10 Partly cloudy - 26.5 1011.6 0.0
04/01:00am ESE 12 16 - - - - 10 Partly cloudy - 26.5 1011.8 0.0
04/12:30am SE 13 18 - - - - 10 Partly cloudy - 26.7 1012.0 0.0
04/12:00am ESE 12 19 - - - - 10 Partly cloudy - 26.3 1012.1 0.0
 
Date/Time
WST
Wind Sea
Height
m
Swell Vis
km
Cloud Weather Temp
°C
Press
MSL
hPa
Rain since
9am
mm
Dir  Spd
kts
Gust
kts
Height
m
Period
s
Dir
03/11:30pm ESE 12 20 - - - - 10 Partly cloudy - 26.6 1012.0 0.0
03/11:00pm ESE 12 17 - - - - 8 Cloudy - 26.4 1012.0 0.0
03/10:30pm SE 15 18 - - - - 10 Partly cloudy - 26.9 1011.8 0.0
03/10:00pm ESE 12 17 - - - - 10 Partly cloudy - 27.0 1011.3 0.0
03/09:30pm ESE 12 17 - - - - 10 Partly cloudy - 27.1 1011.0 0.0
03/09:00pm ESE 12 18 - - - - 10 Partly cloudy - 27.0 1010.8 0.0
03/08:30pm ESE 11 17 - - - - 10 Partly cloudy - 27.0 1010.5 0.0
03/08:00pm ESE 13 18 - - - - 10 Cloudy - 27.1 1010.1 0.0
03/07:30pm SE 14 19 - - - - 10 Partly cloudy - 27.1 1009.6 0.0
03/07:00pm ESE 13 18 - - - - 10 Partly cloudy - 27.3 1009.2 0.0
03/06:30pm SE 17 20 - - - - 10 Partly cloudy - 27.8 1008.9 0.0
03/06:00pm SE 15 21 - - - - 10 Partly cloudy - 27.9 1008.8 0.0
03/05:30pm SE 15 20 - - - - 10 Partly cloudy - 28.2 1008.8 0.0
03/05:00pm SE 16 20 - - - - 10 Mostly clear - 28.2 1008.7 0.0
03/04:30pm SE 16 19 - - - - 10 Mostly clear - 28.3 1008.8 0.0
03/04:00pm ESE 14 19 - - - - 10 Mostly clear - 28.1 1009.0 0.0
03/03:30pm ESE 12 17 - - - - 10 Mostly clear - 28.6 1009.3 0.0
03/03:00pm SE 16 21 - - - - 10 Mostly clear - 28.5 1009.7 0.0
03/02:30pm ESE 14 21 - - - - 10 Mostly clear - 28.8 1010.0 0.0
03/02:00pm SE 15 21 - - - - 10 Mostly clear - 28.8 1010.3 0.0
03/01:30pm SE 17 21 - - - - 10 Partly cloudy - 28.7 1010.6 0.0
03/01:00pm SE 16 20 - - - - 10 Partly cloudy - 28.1 1010.9 0.0
03/12:30pm ESE 16 20 - - - - 10 Mostly clear - 28.0 1011.2 0.0
03/12:00pm SE 16 20 - - - - 10 Mostly clear - 28.0 1011.3 0.0
03/11:30am SE 16 21 - - - - 10 Mostly clear - 27.8 1011.4 0.0
03/11:00am SE 15 21 - - - - 10 Cloudy Recent precip. 27.6 1011.5 2.4
03/10:30am SE 16 19 - - - - 10 Partly cloudy - 27.0 1011.6 2.2
03/10:00am ESE 13 20 - - - - 10 Partly cloudy - 27.8 1011.4 2.2
03/09:30am SE 13 17 - - - - 10 Partly cloudy - 27.6 1011.3 2.2
03/09:00am ESE 11 18 - - - - 10 Partly cloudy - 27.2 1010.9 2.2
03/08:30am ESE 11 17 - - - - 10 Partly cloudy - 26.9 1010.6 2.2
03/08:00am SE 15 19 - - - - 10 Mostly cloudy - 26.5 1010.2 2.2
03/07:30am SE 16 21 - - - - 10 Partly cloudy - 26.4 1009.8 2.2
03/07:00am SE 13 17 - - - - 10 Partly cloudy - 26.3 1009.4 2.2
03/06:30am SE 14 17 - - - - 10 Partly cloudy - 26.1 1009.2 2.2
03/06:00am ESE 14 19 - - - - 10 Partly cloudy - 26.3 1009.0 2.2
03/05:30am SE 13 18 - - - - 10 Partly cloudy - 25.7 1008.9 2.2
03/05:00am SE 15 19 - - - - 10 Cloudy - 26.1 1008.9 2.2
03/04:30am SE 15 19 - - - - 10 Partly cloudy - 26.1 1009.1 2.2
03/04:00am SE 15 18 - - - - 10 Partly cloudy - 26.0 1009.2 2.2
03/03:30am SE 16 20 - - - - 10 Partly cloudy - 26.0 1009.4 2.2
03/03:00am SE 15 18 - - - - 10 Cloudy - 25.9 1009.8 2.2
03/02:30am SSE 11 15 - - - - 10 Partly cloudy - 24.8 1010.3 2.2
03/02:23am S 11 15 - - - - 10 Partly cloudy - 24.4 1010.4 2.2
03/02:04am SSE 10 17 - - - - 6 Partly cloudy - 24.2 1010.7 2.0
03/02:00am SSE 7 15 - - - - 10 Cloudy Recent precip. 24.3 1010.8 1.4
03/01:53am SE 6 9 - - - - 9 Partly cloudy - 24.0 1010.9 1.4
03/01:30am ESE 9 15 - - - - 3 Partly cloudy - 24.2 1011.4 1.2
03/01:18am ESE 11 15 - - - - 6 Partly cloudy - 25.0 1011.5 0.0
03/01:00am SSE 11 14 - - - - 10 Cloudy - 25.5 1011.6 0.0
03/12:30am SE 15 20 - - - - 10 Partly cloudy - 25.3 1011.8 0.0
03/12:00am ESE 8 12 - - - - 10 Partly cloudy - 25.3 1012.0 0.0
 
Date/Time
WST
Wind Sea
Height
m
Swell Vis
km
Cloud Weather Temp
°C
Press
MSL
hPa
Rain since
9am
mm
Dir  Spd
kts
Gust
kts
Height
m
Period
s
Dir
02/11:52pm ESE 8 12 - - - - 10 Partly cloudy - 25.2 1012.0 0.0
02/11:30pm ESE 12 18 - - - - 5 Partly cloudy - 24.5 1012.1 0.0
02/11:28pm ESE 12 19 - - - - 6 Partly cloudy - 24.5 1012.1 0.0
02/11:00pm ESE 13 20 - - - - 10 Cloudy - 25.1 1011.9 0.0
02/10:30pm E 18 22 - - - - 10 Partly cloudy - 25.6 1011.6 0.0
02/10:00pm SE 16 20 - - - - 10 Partly cloudy - 27.0 1011.2 0.0
02/09:30pm SE 18 22 - - - - 10 Partly cloudy - 26.9 1010.9 0.0
02/09:00pm SE 17 21 - - - - 10 Partly cloudy - 26.9 1010.6 0.0
02/08:30pm SE 17 22 - - - - 10 Partly cloudy - 27.0 1010.3 0.0
02/08:00pm SE 18 23 - - - - 10 Cloudy - 27.0 1010.1 0.0
02/07:30pm SE 18 22 - - - - 10 Cloudy - 27.0 1009.9 0.0
02/07:00pm SE 17 22 - - - - 10 Partly cloudy - 27.0 1009.6 0.0
02/06:30pm SE 18 23 - - - - 10 Partly cloudy - 27.3 1009.4 0.0
02/06:00pm SE 18 23 - - - - 10 Partly cloudy - 27.3 1009.2 0.0
02/05:30pm SE 17 22 - - - - 10 Partly cloudy - 27.7 1009.1 0.0
02/05:00pm SE 16 20 - - - - 10 Mostly cloudy - 27.8 1009.2 0.0
02/04:30pm SE 16 23 - - - - 10 Partly cloudy - 27.5 1009.2 0.0
02/04:00pm SE 16 21 - - - - 10 Partly cloudy - 28.6 1009.4 0.0
02/03:30pm SE 15 20 - - - - 10 Partly cloudy - 29.0 1009.6 0.0
02/03:00pm SE 15 19 - - - - 10 Partly cloudy - 28.3 1009.8 0.0
02/02:30pm SE 16 22 - - - - 10 Mostly clear - 28.2 1010.2 0.0
02/02:00pm SE 17 21 - - - - 10 Mostly cloudy - 28.6 1010.5 0.0
02/01:30pm SE 15 20 - - - - 10 Mostly clear - 29.0 1010.8 0.0
02/01:00pm SE 16 19 - - - - 10 Mostly clear - 28.4 1011.2 0.0
02/12:30pm SE 16 21 - - - - 10 Mostly clear - 28.2 1011.5 0.0
02/12:00pm SE 15 21 - - - - 10 Mostly clear - 27.8 1011.7 0.0

Other formats

Comma delimited format used in spreadsheet applications
http://www.bom.gov.au/fwo/IDW60701/IDW60701.96996.axf

JavaScript Object Notation format (JSON) in row-major order
http://www.bom.gov.au/fwo/IDW60701/IDW60701.96996.json

Data quality

Most of these data are generated automatically and are frequently updated. Quality checks on data are not normally performed. It is possible for incorrect values to appear. Refer to information at About Latest Weather Observations and please check the disclaimer before using these data.